createdAt,value
2023-12-11T00:01:07.968Z,-1.40
2023-12-11T00:06:12.265Z,-1.40
2023-12-11T00:11:15.398Z,-1.38
2023-12-11T00:16:19.488Z,-1.37
2023-12-11T00:21:22.647Z,-1.35
2023-12-11T00:26:26.536Z,-1.34
2023-12-11T00:31:29.860Z,-1.32
2023-12-11T00:36:33.762Z,-1.31
2023-12-11T00:41:37.143Z,-1.30
2023-12-11T00:46:40.215Z,-1.27
2023-12-11T00:51:43.404Z,-1.25
2023-12-11T00:56:47.710Z,-1.22
2023-12-11T01:01:51.251Z,-1.20
2023-12-11T01:06:54.822Z,-1.18
2023-12-11T01:11:58.758Z,-1.17
2023-12-11T01:17:36.047Z,-1.15
2023-12-11T01:22:25.688Z,-1.12
2023-12-11T01:27:29.258Z,-1.10
2023-12-11T01:32:32.842Z,-1.07
2023-12-11T01:37:39.851Z,-1.03
2023-12-11T01:42:42.952Z,-1.00
2023-12-11T01:47:46.642Z,-0.95
2023-12-11T01:52:49.917Z,-0.92
2023-12-11T01:57:54.635Z,-0.89
2023-12-11T02:02:57.979Z,-0.86
2023-12-11T02:08:01.354Z,-0.84
2023-12-11T02:13:05.879Z,-0.82
2023-12-11T02:18:11.076Z,-0.81
2023-12-11T02:23:34.255Z,-0.77
2023-12-11T02:28:38.019Z,-0.74
2023-12-11T02:33:41.821Z,-0.70
2023-12-11T02:38:45.444Z,-0.66
2023-12-11T02:43:48.772Z,-0.62
2023-12-11T02:48:52.255Z,-0.60
2023-12-11T02:53:55.617Z,-0.56
2023-12-11T02:58:59.428Z,-0.54
2023-12-11T03:04:02.613Z,-0.50
2023-12-11T03:09:05.777Z,-0.48
2023-12-11T03:14:09.615Z,-0.45
2023-12-11T03:19:13.539Z,-0.41
2023-12-11T03:24:16.551Z,-0.37
2023-12-11T03:29:19.595Z,-0.33
2023-12-11T03:34:23.795Z,-0.30
2023-12-11T03:39:29.885Z,-0.26
2023-12-11T03:44:32.981Z,-0.21
2023-12-11T03:49:36.377Z,-0.18
2023-12-11T03:54:40.710Z,-0.14
2023-12-11T03:59:43.860Z,-0.10
2023-12-11T04:04:47.388Z,-0.04
2023-12-11T04:09:50.648Z,0.01
2023-12-11T04:14:54.305Z,0.07
2023-12-11T04:19:59.262Z,0.12
2023-12-11T04:25:02.701Z,0.16
2023-12-11T04:30:06.940Z,0.18
2023-12-11T04:35:10.321Z,0.22
2023-12-11T04:40:13.589Z,0.25
2023-12-11T04:45:16.641Z,0.27
2023-12-11T04:50:19.900Z,0.30
2023-12-11T04:55:22.930Z,0.30
2023-12-11T05:00:26.091Z,0.31
2023-12-11T05:05:29.416Z,0.31
2023-12-11T05:10:34.206Z,0.31
2023-12-11T05:15:37.383Z,0.32
2023-12-11T05:20:40.793Z,0.33
2023-12-11T05:25:44.521Z,0.34
2023-12-11T05:30:47.670Z,0.36
2023-12-11T05:35:51.040Z,0.36
2023-12-11T05:40:54.747Z,0.37
2023-12-11T05:45:57.754Z,0.38
2023-12-11T05:51:01.208Z,0.38
2023-12-11T05:56:04.641Z,0.37
2023-12-11T06:01:08.434Z,0.38
2023-12-11T06:06:18.026Z,0.41
2023-12-11T06:11:21.769Z,0.44
2023-12-11T06:16:26.011Z,0.47
2023-12-11T06:21:29.263Z,0.53
2023-12-11T06:26:34.462Z,0.57
2023-12-11T06:31:37.678Z,0.61
2023-12-11T06:36:40.948Z,0.63
2023-12-11T06:41:45.250Z,0.65
2023-12-11T06:46:48.733Z,0.67
2023-12-11T06:51:54.442Z,0.68
2023-12-11T06:56:57.728Z,0.71
2023-12-11T07:02:06.029Z,0.75
2023-12-11T07:07:09.654Z,0.79
2023-12-11T07:12:12.675Z,0.82
2023-12-11T07:17:15.780Z,0.85
2023-12-11T07:22:18.848Z,0.89
2023-12-11T07:27:21.871Z,0.91
2023-12-11T07:32:24.805Z,0.92
2023-12-11T07:37:28.680Z,0.94
2023-12-11T07:42:32.726Z,0.95
2023-12-11T07:47:36.959Z,0.97
2023-12-11T07:52:40.189Z,0.99
2023-12-11T07:57:43.248Z,1.01
2023-12-11T08:02:46.430Z,1.01
2023-12-11T08:07:49.823Z,1.02
2023-12-11T08:12:55.873Z,1.03
2023-12-11T08:17:59.619Z,1.05
2023-12-11T08:23:03.533Z,1.08
2023-12-11T08:28:07.260Z,1.11
2023-12-11T08:33:11.958Z,1.13
2023-12-11T08:38:17.770Z,1.17
2023-12-11T08:43:21.874Z,1.20
2023-12-11T08:48:28.513Z,1.24
2023-12-11T08:53:31.978Z,1.28
2023-12-11T08:58:35.736Z,1.28
2023-12-11T09:03:39.359Z,1.33
2023-12-11T09:08:43.107Z,1.37
2023-12-11T09:13:46.052Z,1.42
2023-12-11T09:18:49.950Z,1.48
2023-12-11T09:23:53.674Z,1.56
2023-12-11T09:28:57.625Z,1.61
2023-12-11T09:34:01.029Z,1.63
2023-12-11T09:39:06.120Z,1.69
2023-12-11T09:44:10.178Z,1.76
2023-12-11T09:49:13.313Z,1.79
2023-12-11T09:54:16.467Z,1.82
2023-12-11T09:59:19.965Z,1.85
2023-12-11T10:04:23.037Z,1.87
2023-12-11T10:09:37.589Z,1.87
2023-12-11T10:14:41.577Z,1.92
2023-12-11T10:19:45.230Z,1.95
2023-12-11T10:24:49.053Z,1.97
2023-12-11T10:30:16.121Z,1.94
2023-12-11T10:35:28.961Z,1.97
2023-12-11T10:40:43.272Z,2.01
2023-12-11T10:45:51.092Z,2.06
2023-12-11T10:50:55.498Z,2.08
2023-12-11T10:56:02.760Z,2.09
2023-12-11T11:01:08.853Z,2.11
2023-12-11T11:06:12.880Z,2.14
2023-12-11T11:11:30.656Z,2.18
2023-12-11T11:16:58.857Z,2.19
2023-12-11T11:22:01.885Z,2.20
2023-12-11T11:27:44.061Z,2.24
2023-12-11T11:32:57.041Z,2.28
2023-12-11T11:38:00.051Z,2.32
2023-12-11T11:43:04.717Z,2.33
2023-12-11T11:48:09.126Z,2.34
2023-12-11T11:53:15.366Z,2.32
2023-12-11T11:58:18.554Z,2.31
2023-12-11T12:03:21.630Z,2.27
2023-12-11T12:08:25.322Z,2.23
2023-12-11T12:13:35.753Z,2.18
2023-12-11T12:18:54.000Z,2.17
2023-12-11T12:24:07.860Z,2.17
2023-12-11T12:29:14.410Z,2.16
2023-12-11T12:34:19.356Z,2.17
2023-12-11T12:39:22.940Z,2.18
2023-12-11T12:44:28.367Z,2.18
2023-12-11T12:49:35.471Z,2.19
2023-12-11T12:54:51.942Z,2.22
2023-12-11T12:59:56.553Z,2.27
2023-12-11T13:04:59.847Z,2.29
2023-12-11T13:10:13.049Z,2.29
2023-12-11T13:15:16.712Z,2.27
2023-12-11T13:20:21.563Z,2.25
2023-12-11T13:25:24.909Z,2.23
2023-12-11T13:30:30.880Z,2.19
2023-12-11T13:35:36.850Z,2.16
2023-12-11T13:40:41.486Z,2.14
2023-12-11T13:45:47.415Z,2.11
2023-12-11T13:50:51.192Z,2.09
2023-12-11T13:55:54.420Z,2.06
2023-12-11T14:00:57.535Z,2.05
2023-12-11T14:06:00.576Z,2.04
2023-12-11T14:11:04.280Z,2.05
2023-12-11T14:16:09.557Z,2.06
2023-12-11T14:21:13.260Z,2.07
2023-12-11T14:26:16.305Z,2.07
2023-12-11T14:31:19.416Z,2.10
2023-12-11T14:36:27.378Z,2.12
2023-12-11T14:41:30.912Z,2.14
2023-12-11T14:46:33.942Z,2.15
2023-12-11T14:51:40.814Z,2.18
2023-12-11T14:56:44.519Z,2.19
2023-12-11T15:01:49.156Z,2.17
2023-12-11T15:06:54.816Z,2.17
2023-12-11T15:11:58.781Z,2.16
2023-12-11T15:17:02.217Z,2.16
2023-12-11T15:22:05.608Z,2.15
2023-12-11T15:33:23.613Z,2.19
2023-12-11T15:38:29.778Z,2.24
2023-12-11T15:43:33.531Z,2.25
2023-12-11T15:48:40.123Z,2.29
2023-12-11T15:53:47.540Z,2.32
2023-12-11T15:58:50.597Z,2.32
2023-12-11T16:03:54.241Z,2.33
2023-12-11T16:08:57.297Z,2.34
2023-12-11T16:14:02.728Z,2.35
2023-12-11T16:19:06.563Z,2.38
2023-12-11T16:24:10.195Z,2.41
2023-12-11T16:29:13.247Z,2.43
2023-12-11T16:34:16.570Z,2.44
2023-12-11T16:39:19.574Z,2.46
2023-12-11T16:44:22.541Z,2.44
2023-12-11T16:49:25.711Z,2.45
2023-12-11T16:54:28.670Z,2.45
2023-12-11T16:59:31.990Z,2.45
2023-12-11T17:04:35.018Z,2.47
2023-12-11T17:09:39.072Z,2.47
2023-12-11T17:14:44.212Z,2.49
2023-12-11T17:19:47.579Z,2.51
2023-12-11T17:24:50.730Z,2.53
2023-12-11T17:29:53.834Z,2.55
2023-12-11T17:34:57.444Z,2.56
2023-12-11T17:40:09.664Z,2.57
2023-12-11T17:45:14.334Z,2.58
2023-12-11T17:50:18.941Z,2.60
2023-12-11T17:55:22.774Z,2.61
2023-12-11T18:00:26.797Z,2.59
2023-12-11T18:05:30.447Z,2.59
2023-12-11T18:10:34.511Z,2.59
2023-12-11T18:15:38.569Z,2.59
2023-12-11T18:20:42.322Z,2.57
2023-12-11T18:25:45.159Z,2.56
2023-12-11T18:30:48.999Z,2.57
2023-12-11T18:35:52.157Z,2.58
2023-12-11T18:40:55.001Z,2.58
2023-12-11T18:45:58.096Z,2.59
2023-12-11T18:51:01.382Z,2.59
2023-12-11T18:56:05.123Z,2.60
2023-12-11T19:01:11.863Z,2.62
2023-12-11T19:06:15.222Z,2.64
2023-12-11T19:11:19.148Z,2.65
2023-12-11T19:16:22.260Z,2.65
2023-12-11T19:21:27.693Z,2.66
2023-12-11T19:26:30.767Z,2.66
2023-12-11T19:31:34.342Z,2.65
2023-12-11T19:36:40.760Z,2.64
2023-12-11T19:41:50.453Z,2.61
2023-12-11T19:46:54.911Z,2.58
2023-12-11T19:52:01.015Z,2.56
2023-12-11T19:57:04.282Z,2.56
2023-12-11T20:02:09.528Z,2.54
2023-12-11T20:07:14.140Z,2.52
2023-12-11T20:12:17.212Z,2.51
2023-12-11T20:17:22.965Z,2.50
2023-12-11T20:22:26.255Z,2.49
2023-12-11T20:27:35.579Z,2.49
2023-12-11T20:32:38.987Z,2.51
2023-12-11T20:37:42.675Z,2.53
2023-12-11T20:42:45.943Z,2.54
2023-12-11T20:47:50.816Z,2.55
2023-12-11T20:52:54.663Z,2.53
2023-12-11T20:57:58.046Z,2.51
2023-12-11T21:03:03.766Z,2.49
2023-12-11T21:08:09.976Z,2.48
2023-12-11T21:13:15.522Z,2.45
2023-12-11T21:18:18.657Z,2.42
2023-12-11T21:23:23.846Z,2.40
2023-12-11T21:28:27.066Z,2.39
2023-12-11T21:33:30.718Z,2.38
2023-12-11T21:38:33.975Z,2.37
2023-12-11T21:43:36.949Z,2.37
2023-12-11T21:48:41.738Z,2.36
2023-12-11T21:53:47.281Z,2.33
2023-12-11T21:58:51.911Z,2.31
2023-12-11T22:03:54.977Z,2.28
2023-12-11T22:08:58.759Z,2.26
2023-12-11T22:14:02.981Z,2.26
2023-12-11T22:19:06.446Z,2.25
2023-12-11T22:24:10.463Z,2.25
2023-12-11T22:29:15.863Z,2.27
2023-12-11T22:34:19.769Z,2.30
2023-12-11T22:39:23.631Z,2.33
2023-12-11T22:44:27.728Z,2.34
2023-12-11T22:49:31.517Z,2.35
2023-12-11T22:54:34.830Z,2.35
2023-12-11T22:59:38.090Z,2.35
2023-12-11T23:04:42.063Z,2.37
2023-12-11T23:09:45.711Z,2.38
2023-12-11T23:14:48.765Z,2.40
2023-12-11T23:19:52.445Z,2.39
2023-12-11T23:24:56.338Z,2.38
2023-12-11T23:30:06.670Z,2.38
2023-12-11T23:35:11.220Z,2.36
2023-12-11T23:40:14.818Z,2.36
2023-12-11T23:45:17.967Z,2.37
2023-12-11T23:50:21.266Z,2.37
2023-12-11T23:55:24.583Z,2.37
